sensor_id;sensor_type;location;lat;lon;timestamp;P1;durP1;ratioP1;P2;durP2;ratioP2
65896;SDS011;52677;50.898;10.854;2023-09-30T00:01:13;4.45;;;1.90;;
65896;SDS011;52677;50.898;10.854;2023-09-30T00:03:14;2.97;;;1.85;;
65896;SDS011;52677;50.898;10.854;2023-09-30T00:05:15;5.70;;;1.73;;
65896;SDS011;52677;50.898;10.854;2023-09-30T00:07:15;4.80;;;2.42;;
65896;SDS011;52677;50.898;10.854;2023-09-30T00:09:15;6.32;;;2.13;;
65896;SDS011;52677;50.898;10.854;2023-09-30T00:11:16;5.38;;;2.55;;
65896;SDS011;52677;50.898;10.854;2023-09-30T00:13:19;8.15;;;1.90;;
65896;SDS011;52677;50.898;10.854;2023-09-30T00:15:19;4.05;;;1.67;;
65896;SDS011;52677;50.898;10.854;2023-09-30T00:17:20;4.15;;;1.83;;
65896;SDS011;52677;50.898;10.854;2023-09-30T00:19:20;5.43;;;1.70;;
65896;SDS011;52677;50.898;10.854;2023-09-30T00:21:22;4.22;;;1.88;;
65896;SDS011;52677;50.898;10.854;2023-09-30T00:23:23;5.15;;;2.00;;
65896;SDS011;52677;50.898;10.854;2023-09-30T00:25:23;4.13;;;1.70;;
65896;SDS011;52677;50.898;10.854;2023-09-30T00:27:24;5.25;;;2.00;;
65896;SDS011;52677;50.898;10.854;2023-09-30T00:29:24;6.35;;;1.92;;
65896;SDS011;52677;50.898;10.854;2023-09-30T00:31:24;5.72;;;1.95;;
65896;SDS011;52677;50.898;10.854;2023-09-30T00:33:25;4.78;;;2.00;;
65896;SDS011;52677;50.898;10.854;2023-09-30T00:35:25;4.20;;;1.50;;
65896;SDS011;52677;50.898;10.854;2023-09-30T00:37:25;4.18;;;1.77;;
65896;SDS011;52677;50.898;10.854;2023-09-30T00:39:27;5.03;;;1.88;;
65896;SDS011;52677;50.898;10.854;2023-09-30T00:41:30;4.43;;;1.60;;
65896;SDS011;52677;50.898;10.854;2023-09-30T00:43:30;6.13;;;1.73;;
65896;SDS011;52677;50.898;10.854;2023-09-30T00:45:31;5.55;;;1.83;;
65896;SDS011;52677;50.898;10.854;2023-09-30T00:47:32;4.15;;;1.77;;
65896;SDS011;52677;50.898;10.854;2023-09-30T00:49:34;4.22;;;1.70;;
65896;SDS011;52677;50.898;10.854;2023-09-30T00:51:34;4.72;;;1.80;;
65896;SDS011;52677;50.898;10.854;2023-09-30T00:53:34;9.13;;;2.33;;
65896;SDS011;52677;50.898;10.854;2023-09-30T00:55:35;7.95;;;2.35;;
65896;SDS011;52677;50.898;10.854;2023-09-30T00:57:36;3.60;;;1.90;;
65896;SDS011;52677;50.898;10.854;2023-09-30T00:59:38;4.75;;;1.85;;
65896;SDS011;52677;50.898;10.854;2023-09-30T01:01:40;3.60;;;1.70;;
65896;SDS011;52677;50.898;10.854;2023-09-30T01:03:44;3.15;;;1.85;;
65896;SDS011;52677;50.898;10.854;2023-09-30T01:05:46;3.88;;;1.98;;
65896;SDS011;52677;50.898;10.854;2023-09-30T01:07:46;6.75;;;1.90;;
65896;SDS011;52677;50.898;10.854;2023-09-30T01:09:47;3.75;;;2.08;;
65896;SDS011;52677;50.898;10.854;2023-09-30T01:11:47;3.42;;;1.50;;
65896;SDS011;52677;50.898;10.854;2023-09-30T01:13:48;3.10;;;2.03;;
65896;SDS011;52677;50.898;10.854;2023-09-30T01:15:49;6.53;;;2.20;;
65896;SDS011;52677;50.898;10.854;2023-09-30T01:17:49;4.00;;;2.00;;
65896;SDS011;52677;50.898;10.854;2023-09-30T01:19:50;4.82;;;1.73;;
65896;SDS011;52677;50.898;10.854;2023-09-30T01:21:55;3.83;;;2.00;;
65896;SDS011;52677;50.898;10.854;2023-09-30T01:24:05;3.70;;;1.73;;
65896;SDS011;52677;50.898;10.854;2023-09-30T01:26:10;3.53;;;2.33;;
65896;SDS011;52677;50.898;10.854;2023-09-30T01:28:14;5.00;;;2.13;;
65896;SDS011;52677;50.898;10.854;2023-09-30T01:30:16;6.30;;;2.13;;
65896;SDS011;52677;50.898;10.854;2023-09-30T01:32:17;7.10;;;2.55;;
65896;SDS011;52677;50.898;10.854;2023-09-30T01:34:18;4.63;;;2.28;;
65896;SDS011;52677;50.898;10.854;2023-09-30T01:36:18;4.55;;;1.92;;
65896;SDS011;52677;50.898;10.854;2023-09-30T01:38:19;6.53;;;1.98;;
65896;SDS011;52677;50.898;10.854;2023-09-30T01:40:20;4.13;;;2.00;;
65896;SDS011;52677;50.898;10.854;2023-09-30T01:42:20;3.78;;;1.90;;
65896;SDS011;52677;50.898;10.854;2023-09-30T01:44:21;3.50;;;2.00;;
65896;SDS011;52677;50.898;10.854;2023-09-30T01:46:21;5.68;;;2.30;;
65896;SDS011;52677;50.898;10.854;2023-09-30T01:48:22;5.13;;;2.20;;
65896;SDS011;52677;50.898;10.854;2023-09-30T01:50:23;3.47;;;1.88;;
65896;SDS011;52677;50.898;10.854;2023-09-30T01:52:23;5.22;;;2.08;;
65896;SDS011;52677;50.898;10.854;2023-09-30T01:54:23;5.28;;;2.10;;
65896;SDS011;52677;50.898;10.854;2023-09-30T01:56:24;4.38;;;2.30;;
65896;SDS011;52677;50.898;10.854;2023-09-30T01:58:25;4.63;;;2.35;;
65896;SDS011;52677;50.898;10.854;2023-09-30T02:00:25;4.63;;;2.17;;
65896;SDS011;52677;50.898;10.854;2023-09-30T02:02:28;4.95;;;2.65;;
65896;SDS011;52677;50.898;10.854;2023-09-30T02:04:28;3.75;;;2.20;;
65896;SDS011;52677;50.898;10.854;2023-09-30T02:06:29;6.57;;;2.45;;
65896;SDS011;52677;50.898;10.854;2023-09-30T02:08:29;8.75;;;2.55;;
65896;SDS011;52677;50.898;10.854;2023-09-30T02:10:30;4.07;;;2.47;;
65896;SDS011;52677;50.898;10.854;2023-09-30T02:12:30;5.40;;;2.20;;
65896;SDS011;52677;50.898;10.854;2023-09-30T02:14:31;4.10;;;2.65;;
65896;SDS011;52677;50.898;10.854;2023-09-30T02:16:31;5.53;;;2.70;;
65896;SDS011;52677;50.898;10.854;2023-09-30T02:18:32;3.67;;;2.53;;
65896;SDS011;52677;50.898;10.854;2023-09-30T02:20:33;8.05;;;3.10;;
65896;SDS011;52677;50.898;10.854;2023-09-30T02:22:33;5.32;;;2.67;;
65896;SDS011;52677;50.898;10.854;2023-09-30T02:24:34;7.57;;;2.58;;
65896;SDS011;52677;50.898;10.854;2023-09-30T02:26:34;5.30;;;2.60;;
65896;SDS011;52677;50.898;10.854;2023-09-30T02:28:34;6.00;;;2.65;;
65896;SDS011;52677;50.898;10.854;2023-09-30T02:30:36;4.50;;;2.55;;
65896;SDS011;52677;50.898;10.854;2023-09-30T02:32:38;4.93;;;2.65;;
65896;SDS011;52677;50.898;10.854;2023-09-30T02:34:39;6.57;;;2.88;;
65896;SDS011;52677;50.898;10.854;2023-09-30T02:36:40;4.97;;;2.67;;
65896;SDS011;52677;50.898;10.854;2023-09-30T02:38:40;6.97;;;3.28;;
65896;SDS011;52677;50.898;10.854;2023-09-30T02:40:41;4.50;;;2.70;;
65896;SDS011;52677;50.898;10.854;2023-09-30T02:42:45;6.75;;;2.60;;
65896;SDS011;52677;50.898;10.854;2023-09-30T02:44:45;4.70;;;2.50;;
65896;SDS011;52677;50.898;10.854;2023-09-30T02:46:47;8.88;;;3.15;;
65896;SDS011;52677;50.898;10.854;2023-09-30T02:48:47;7.95;;;3.55;;
65896;SDS011;52677;50.898;10.854;2023-09-30T02:50:47;5.68;;;3.08;;
65896;SDS011;52677;50.898;10.854;2023-09-30T02:52:48;5.18;;;2.65;;
65896;SDS011;52677;50.898;10.854;2023-09-30T02:54:49;5.50;;;2.90;;
65896;SDS011;52677;50.898;10.854;2023-09-30T02:56:50;5.30;;;2.75;;
65896;SDS011;52677;50.898;10.854;2023-09-30T02:58:52;5.90;;;2.90;;
65896;SDS011;52677;50.898;10.854;2023-09-30T03:00:52;5.03;;;2.83;;
65896;SDS011;52677;50.898;10.854;2023-09-30T03:02:54;6.60;;;3.35;;
65896;SDS011;52677;50.898;10.854;2023-09-30T03:04:55;3.97;;;2.97;;
65896;SDS011;52677;50.898;10.854;2023-09-30T03:06:58;7.18;;;3.15;;
65896;SDS011;52677;50.898;10.854;2023-09-30T03:08:58;4.10;;;2.53;;
65896;SDS011;52677;50.898;10.854;2023-09-30T03:10:58;7.57;;;2.97;;
65896;SDS011;52677;50.898;10.854;2023-09-30T03:12:59;7.40;;;2.55;;
65896;SDS011;52677;50.898;10.854;2023-09-30T03:15:01;5.72;;;2.78;;
65896;SDS011;52677;50.898;10.854;2023-09-30T03:17:04;6.47;;;3.20;;
65896;SDS011;52677;50.898;10.854;2023-09-30T03:19:04;4.40;;;2.58;;
65896;SDS011;52677;50.898;10.854;2023-09-30T03:21:12;5.00;;;2.67;;
65896;SDS011;52677;50.898;10.854;2023-09-30T03:23:14;5.40;;;2.65;;
65896;SDS011;52677;50.898;10.854;2023-09-30T03:25:15;5.22;;;2.67;;
65896;SDS011;52677;50.898;10.854;2023-09-30T03:27:17;7.22;;;2.70;;
65896;SDS011;52677;50.898;10.854;2023-09-30T03:29:17;10.48;;;3.00;;
65896;SDS011;52677;50.898;10.854;2023-09-30T03:31:21;5.55;;;3.05;;
65896;SDS011;52677;50.898;10.854;2023-09-30T03:33:22;6.90;;;2.78;;
65896;SDS011;52677;50.898;10.854;2023-09-30T03:35:22;5.88;;;3.33;;
65896;SDS011;52677;50.898;10.854;2023-09-30T03:37:24;6.68;;;3.13;;
65896;SDS011;52677;50.898;10.854;2023-09-30T03:39:26;6.47;;;3.33;;
65896;SDS011;52677;50.898;10.854;2023-09-30T03:41:27;6.93;;;2.83;;
65896;SDS011;52677;50.898;10.854;2023-09-30T03:43:28;4.15;;;2.70;;
65896;SDS011;52677;50.898;10.854;2023-09-30T03:45:29;6.32;;;3.22;;
65896;SDS011;52677;50.898;10.854;2023-09-30T03:47:29;5.35;;;3.47;;
65896;SDS011;52677;50.898;10.854;2023-09-30T03:49:31;5.60;;;3.17;;
65896;SDS011;52677;50.898;10.854;2023-09-30T03:51:31;5.43;;;3.00;;
65896;SDS011;52677;50.898;10.854;2023-09-30T03:53:31;7.35;;;3.42;;
65896;SDS011;52677;50.898;10.854;2023-09-30T03:55:32;5.82;;;2.75;;
65896;SDS011;52677;50.898;10.854;2023-09-30T03:57:33;6.65;;;3.10;;
65896;SDS011;52677;50.898;10.854;2023-09-30T03:59:36;5.80;;;3.25;;
65896;SDS011;52677;50.898;10.854;2023-09-30T04:01:36;7.78;;;3.30;;
65896;SDS011;52677;50.898;10.854;2023-09-30T04:03:40;4.95;;;3.38;;
65896;SDS011;52677;50.898;10.854;2023-09-30T04:05:41;7.43;;;3.30;;
65896;SDS011;52677;50.898;10.854;2023-09-30T04:07:42;8.57;;;3.70;;
65896;SDS011;52677;50.898;10.854;2023-09-30T04:09:43;5.68;;;2.92;;
65896;SDS011;52677;50.898;10.854;2023-09-30T04:11:43;8.27;;;3.50;;
65896;SDS011;52677;50.898;10.854;2023-09-30T04:13:44;6.90;;;3.25;;
65896;SDS011;52677;50.898;10.854;2023-09-30T04:15:45;6.03;;;3.17;;
65896;SDS011;52677;50.898;10.854;2023-09-30T04:17:47;4.88;;;3.03;;
65896;SDS011;52677;50.898;10.854;2023-09-30T04:19:48;5.40;;;3.22;;
65896;SDS011;52677;50.898;10.854;2023-09-30T04:21:51;4.53;;;2.58;;
65896;SDS011;52677;50.898;10.854;2023-09-30T04:23:52;5.47;;;2.45;;
65896;SDS011;52677;50.898;10.854;2023-09-30T04:25:53;7.75;;;2.80;;
65896;SDS011;52677;50.898;10.854;2023-09-30T04:27:53;5.97;;;2.85;;
65896;SDS011;52677;50.898;10.854;2023-09-30T04:29:54;11.80;;;3.33;;
65896;SDS011;52677;50.898;10.854;2023-09-30T04:31:55;9.68;;;3.33;;
65896;SDS011;52677;50.898;10.854;2023-09-30T04:33:56;6.50;;;2.88;;
65896;SDS011;52677;50.898;10.854;2023-09-30T04:35:58;7.03;;;3.17;;
65896;SDS011;52677;50.898;10.854;2023-09-30T04:37:58;4.03;;;2.30;;
65896;SDS011;52677;50.898;10.854;2023-09-30T04:40:01;6.35;;;2.83;;
65896;SDS011;52677;50.898;10.854;2023-09-30T04:42:07;5.57;;;2.90;;
65896;SDS011;52677;50.898;10.854;2023-09-30T04:44:11;5.00;;;2.70;;
65896;SDS011;52677;50.898;10.854;2023-09-30T04:46:11;5.47;;;2.80;;
65896;SDS011;52677;50.898;10.854;2023-09-30T04:48:12;6.70;;;2.85;;
65896;SDS011;52677;50.898;10.854;2023-09-30T04:50:13;6.25;;;2.80;;
65896;SDS011;52677;50.898;10.854;2023-09-30T04:52:16;9.88;;;3.25;;
65896;SDS011;52677;50.898;10.854;2023-09-30T04:54:16;4.25;;;2.80;;
65896;SDS011;52677;50.898;10.854;2023-09-30T04:56:16;5.03;;;2.45;;
65896;SDS011;52677;50.898;10.854;2023-09-30T04:58:17;6.55;;;2.97;;
65896;SDS011;52677;50.898;10.854;2023-09-30T05:00:18;5.53;;;2.83;;
65896;SDS011;52677;50.898;10.854;2023-09-30T05:02:24;5.38;;;3.13;;
65896;SDS011;52677;50.898;10.854;2023-09-30T05:04:26;7.38;;;3.13;;
65896;SDS011;52677;50.898;10.854;2023-09-30T05:06:26;7.43;;;3.20;;
65896;SDS011;52677;50.898;10.854;2023-09-30T05:08:26;7.72;;;3.42;;
65896;SDS011;52677;50.898;10.854;2023-09-30T05:10:28;7.60;;;2.88;;
65896;SDS011;52677;50.898;10.854;2023-09-30T05:12:29;7.80;;;3.20;;
65896;SDS011;52677;50.898;10.854;2023-09-30T05:14:29;9.07;;;3.05;;
65896;SDS011;52677;50.898;10.854;2023-09-30T05:16:29;6.13;;;3.25;;
65896;SDS011;52677;50.898;10.854;2023-09-30T05:18:30;9.57;;;3.53;;
65896;SDS011;52677;50.898;10.854;2023-09-30T05:20:30;7.63;;;3.00;;
65896;SDS011;52677;50.898;10.854;2023-09-30T05:22:30;8.27;;;2.83;;
65896;SDS011;52677;50.898;10.854;2023-09-30T05:24:31;9.32;;;3.58;;
65896;SDS011;52677;50.898;10.854;2023-09-30T05:26:31;6.10;;;2.97;;
65896;SDS011;52677;50.898;10.854;2023-09-30T05:28:32;8.07;;;2.85;;
65896;SDS011;52677;50.898;10.854;2023-09-30T05:30:33;8.80;;;3.30;;
65896;SDS011;52677;50.898;10.854;2023-09-30T05:32:33;7.47;;;3.55;;
65896;SDS011;52677;50.898;10.854;2023-09-30T05:34:38;7.65;;;3.30;;
65896;SDS011;52677;50.898;10.854;2023-09-30T05:36:39;5.82;;;2.90;;
65896;SDS011;52677;50.898;10.854;2023-09-30T05:38:39;11.65;;;3.08;;
65896;SDS011;52677;50.898;10.854;2023-09-30T05:40:39;5.07;;;2.80;;
65896;SDS011;52677;50.898;10.854;2023-09-30T05:42:43;10.88;;;4.18;;
65896;SDS011;52677;50.898;10.854;2023-09-30T05:44:44;5.72;;;3.53;;
65896;SDS011;52677;50.898;10.854;2023-09-30T05:46:45;10.18;;;3.47;;
65896;SDS011;52677;50.898;10.854;2023-09-30T05:48:46;6.53;;;3.22;;
65896;SDS011;52677;50.898;10.854;2023-09-30T05:50:46;9.70;;;4.10;;
65896;SDS011;52677;50.898;10.854;2023-09-30T05:52:47;8.05;;;3.72;;
65896;SDS011;52677;50.898;10.854;2023-09-30T05:54:48;9.30;;;3.30;;
65896;SDS011;52677;50.898;10.854;2023-09-30T05:56:49;10.75;;;3.55;;
65896;SDS011;52677;50.898;10.854;2023-09-30T05:58:49;7.32;;;3.70;;
65896;SDS011;52677;50.898;10.854;2023-09-30T06:00:49;5.18;;;2.88;;
65896;SDS011;52677;50.898;10.854;2023-09-30T06:02:50;6.70;;;2.55;;
65896;SDS011;52677;50.898;10.854;2023-09-30T06:04:51;7.70;;;3.45;;
65896;SDS011;52677;50.898;10.854;2023-09-30T06:06:53;8.50;;;4.18;;
65896;SDS011;52677;50.898;10.854;2023-09-30T06:08:54;8.15;;;3.05;;
65896;SDS011;52677;50.898;10.854;2023-09-30T06:10:54;6.72;;;3.05;;
65896;SDS011;52677;50.898;10.854;2023-09-30T06:12:54;6.97;;;3.03;;
65896;SDS011;52677;50.898;10.854;2023-09-30T06:14:56;8.38;;;3.33;;
65896;SDS011;52677;50.898;10.854;2023-09-30T06:16:56;7.90;;;3.65;;
65896;SDS011;52677;50.898;10.854;2023-09-30T06:18:57;7.28;;;2.90;;
65896;SDS011;52677;50.898;10.854;2023-09-30T06:20:57;7.78;;;3.20;;
65896;SDS011;52677;50.898;10.854;2023-09-30T06:22:57;5.50;;;2.90;;
65896;SDS011;52677;50.898;10.854;2023-09-30T06:24:58;4.53;;;2.83;;
65896;SDS011;52677;50.898;10.854;2023-09-30T06:26:58;8.27;;;3.17;;
65896;SDS011;52677;50.898;10.854;2023-09-30T06:28:59;7.10;;;3.60;;
65896;SDS011;52677;50.898;10.854;2023-09-30T06:31:00;6.40;;;3.42;;
65896;SDS011;52677;50.898;10.854;2023-09-30T06:33:00;8.85;;;3.00;;
65896;SDS011;52677;50.898;10.854;2023-09-30T06:35:02;7.25;;;2.90;;
65896;SDS011;52677;50.898;10.854;2023-09-30T06:37:06;7.65;;;2.80;;
65896;SDS011;52677;50.898;10.854;2023-09-30T06:39:06;6.65;;;3.15;;
65896;SDS011;52677;50.898;10.854;2023-09-30T06:41:07;11.18;;;3.60;;
65896;SDS011;52677;50.898;10.854;2023-09-30T06:43:08;9.65;;;3.80;;
65896;SDS011;52677;50.898;10.854;2023-09-30T06:45:09;8.50;;;3.90;;
65896;SDS011;52677;50.898;10.854;2023-09-30T06:47:10;10.60;;;4.05;;
65896;SDS011;52677;50.898;10.854;2023-09-30T06:49:12;6.30;;;3.00;;
65896;SDS011;52677;50.898;10.854;2023-09-30T06:51:13;7.22;;;3.63;;
65896;SDS011;52677;50.898;10.854;2023-09-30T06:55:16;9.75;;;4.10;;
65896;SDS011;52677;50.898;10.854;2023-09-30T06:57:16;7.85;;;3.58;;
65896;SDS011;52677;50.898;10.854;2023-09-30T06:59:17;10.60;;;3.83;;
65896;SDS011;52677;50.898;10.854;2023-09-30T07:01:17;7.85;;;3.50;;
65896;SDS011;52677;50.898;10.854;2023-09-30T07:03:17;11.75;;;3.60;;
65896;SDS011;52677;50.898;10.854;2023-09-30T07:05:19;10.80;;;4.25;;
65896;SDS011;52677;50.898;10.854;2023-09-30T07:07:20;6.28;;;3.25;;
65896;SDS011;52677;50.898;10.854;2023-09-30T07:09:20;11.73;;;3.55;;
65896;SDS011;52677;50.898;10.854;2023-09-30T07:11:29;5.85;;;2.78;;
65896;SDS011;52677;50.898;10.854;2023-09-30T07:13:33;8.95;;;4.07;;
65896;SDS011;52677;50.898;10.854;2023-09-30T07:15:34;10.35;;;3.95;;
65896;SDS011;52677;50.898;10.854;2023-09-30T07:17:34;9.13;;;3.85;;
65896;SDS011;52677;50.898;10.854;2023-09-30T07:19:35;10.00;;;3.40;;
65896;SDS011;52677;50.898;10.854;2023-09-30T07:21:36;6.78;;;3.38;;
65896;SDS011;52677;50.898;10.854;2023-09-30T07:23:37;9.18;;;3.72;;
65896;SDS011;52677;50.898;10.854;2023-09-30T07:25:37;8.10;;;3.70;;
65896;SDS011;52677;50.898;10.854;2023-09-30T07:27:38;9.10;;;3.50;;
65896;SDS011;52677;50.898;10.854;2023-09-30T07:29:38;16.45;;;8.63;;
65896;SDS011;52677;50.898;10.854;2023-09-30T07:31:38;15.90;;;6.22;;
65896;SDS011;52677;50.898;10.854;2023-09-30T07:33:39;13.27;;;5.50;;
65896;SDS011;52677;50.898;10.854;2023-09-30T07:35:39;12.50;;;4.35;;
65896;SDS011;52677;50.898;10.854;2023-09-30T07:37:40;13.73;;;4.50;;
65896;SDS011;52677;50.898;10.854;2023-09-30T07:39:41;10.48;;;3.80;;
65896;SDS011;52677;50.898;10.854;2023-09-30T07:41:41;9.48;;;3.45;;
65896;SDS011;52677;50.898;10.854;2023-09-30T07:43:42;6.78;;;3.25;;
65896;SDS011;52677;50.898;10.854;2023-09-30T07:45:42;7.22;;;3.10;;
65896;SDS011;52677;50.898;10.854;2023-09-30T07:47:44;9.15;;;3.38;;
65896;SDS011;52677;50.898;10.854;2023-09-30T07:49:46;7.70;;;3.03;;
65896;SDS011;52677;50.898;10.854;2023-09-30T07:51:46;8.70;;;3.08;;
65896;SDS011;52677;50.898;10.854;2023-09-30T07:53:47;8.45;;;3.28;;
65896;SDS011;52677;50.898;10.854;2023-09-30T07:55:47;7.07;;;2.85;;
65896;SDS011;52677;50.898;10.854;2023-09-30T07:57:48;11.15;;;3.00;;
65896;SDS011;52677;50.898;10.854;2023-09-30T07:59:50;8.75;;;2.92;;
65896;SDS011;52677;50.898;10.854;2023-09-30T08:01:50;8.30;;;2.80;;
65896;SDS011;52677;50.898;10.854;2023-09-30T08:03:54;7.95;;;2.90;;
65896;SDS011;52677;50.898;10.854;2023-09-30T08:05:56;9.30;;;3.10;;
65896;SDS011;52677;50.898;10.854;2023-09-30T08:07:56;11.77;;;2.70;;
65896;SDS011;52677;50.898;10.854;2023-09-30T08:09:56;7.88;;;2.50;;
65896;SDS011;52677;50.898;10.854;2023-09-30T08:11:57;8.30;;;3.45;;
65896;SDS011;52677;50.898;10.854;2023-09-30T08:13:58;7.63;;;2.55;;
65896;SDS011;52677;50.898;10.854;2023-09-30T08:15:59;9.05;;;2.28;;
65896;SDS011;52677;50.898;10.854;2023-09-30T08:17:59;10.65;;;3.13;;
65896;SDS011;52677;50.898;10.854;2023-09-30T08:20:00;9.25;;;2.53;;
65896;SDS011;52677;50.898;10.854;2023-09-30T08:22:00;7.00;;;2.88;;
65896;SDS011;52677;50.898;10.854;2023-09-30T08:24:01;7.90;;;2.38;;
65896;SDS011;52677;50.898;10.854;2023-09-30T08:26:02;8.32;;;2.65;;
65896;SDS011;52677;50.898;10.854;2023-09-30T08:28:05;10.10;;;3.10;;
65896;SDS011;52677;50.898;10.854;2023-09-30T08:30:05;7.43;;;2.17;;
65896;SDS011;52677;50.898;10.854;2023-09-30T08:32:06;10.07;;;2.78;;
65896;SDS011;52677;50.898;10.854;2023-09-30T08:34:07;9.63;;;2.60;;
65896;SDS011;52677;50.898;10.854;2023-09-30T08:36:08;9.70;;;2.95;;
65896;SDS011;52677;50.898;10.854;2023-09-30T08:38:09;8.35;;;3.20;;
65896;SDS011;52677;50.898;10.854;2023-09-30T08:40:10;9.63;;;3.35;;
65896;SDS011;52677;50.898;10.854;2023-09-30T08:42:11;10.15;;;3.15;;
65896;SDS011;52677;50.898;10.854;2023-09-30T08:44:12;7.63;;;2.28;;
65896;SDS011;52677;50.898;10.854;2023-09-30T08:46:12;7.70;;;2.60;;
65896;SDS011;52677;50.898;10.854;2023-09-30T08:48:14;11.27;;;3.72;;
65896;SDS011;52677;50.898;10.854;2023-09-30T08:50:15;8.15;;;2.63;;
65896;SDS011;52677;50.898;10.854;2023-09-30T08:52:16;9.88;;;3.17;;
65896;SDS011;52677;50.898;10.854;2023-09-30T08:54:17;9.00;;;3.00;;
65896;SDS011;52677;50.898;10.854;2023-09-30T08:56:18;11.52;;;2.95;;
65896;SDS011;52677;50.898;10.854;2023-09-30T08:58:28;6.32;;;2.42;;
65896;SDS011;52677;50.898;10.854;2023-09-30T09:00:29;8.00;;;2.60;;
65896;SDS011;52677;50.898;10.854;2023-09-30T09:02:29;12.52;;;3.05;;
65896;SDS011;52677;50.898;10.854;2023-09-30T09:04:29;9.63;;;2.72;;
65896;SDS011;52677;50.898;10.854;2023-09-30T09:06:31;9.02;;;2.80;;
65896;SDS011;52677;50.898;10.854;2023-09-30T09:08:31;7.43;;;2.72;;
65896;SDS011;52677;50.898;10.854;2023-09-30T09:10:33;7.15;;;2.90;;
65896;SDS011;52677;50.898;10.854;2023-09-30T09:12:34;10.80;;;2.95;;
65896;SDS011;52677;50.898;10.854;2023-09-30T09:14:37;9.85;;;2.70;;
65896;SDS011;52677;50.898;10.854;2023-09-30T09:16:54;7.97;;;2.50;;
65896;SDS011;52677;50.898;10.854;2023-09-30T09:18:55;7.60;;;2.30;;
65896;SDS011;52677;50.898;10.854;2023-09-30T09:21:12;7.22;;;2.40;;
65896;SDS011;52677;50.898;10.854;2023-09-30T09:23:17;8.75;;;3.22;;
65896;SDS011;52677;50.898;10.854;2023-09-30T09:25:18;8.45;;;2.35;;
65896;SDS011;52677;50.898;10.854;2023-09-30T09:27:18;16.45;;;3.00;;
65896;SDS011;52677;50.898;10.854;2023-09-30T09:29:20;8.45;;;2.40;;
65896;SDS011;52677;50.898;10.854;2023-09-30T09:33:35;7.18;;;2.58;;
65896;SDS011;52677;50.898;10.854;2023-09-30T09:35:37;7.90;;;2.35;;
65896;SDS011;52677;50.898;10.854;2023-09-30T09:37:37;7.07;;;2.40;;
65896;SDS011;52677;50.898;10.854;2023-09-30T09:39:38;8.93;;;2.67;;
65896;SDS011;52677;50.898;10.854;2023-09-30T09:41:53;10.18;;;2.60;;
65896;SDS011;52677;50.898;10.854;2023-09-30T09:43:56;10.27;;;2.78;;
65896;SDS011;52677;50.898;10.854;2023-09-30T09:45:59;9.65;;;3.13;;
65896;SDS011;52677;50.898;10.854;2023-09-30T09:48:04;6.43;;;2.60;;
65896;SDS011;52677;50.898;10.854;2023-09-30T09:50:05;9.65;;;2.45;;
65896;SDS011;52677;50.898;10.854;2023-09-30T09:52:06;11.05;;;3.10;;
65896;SDS011;52677;50.898;10.854;2023-09-30T09:54:06;5.75;;;2.38;;
65896;SDS011;52677;50.898;10.854;2023-09-30T09:56:07;9.02;;;2.03;;
65896;SDS011;52677;50.898;10.854;2023-09-30T10:00:17;6.63;;;2.30;;
65896;SDS011;52677;50.898;10.854;2023-09-30T10:02:19;10.65;;;2.28;;
65896;SDS011;52677;50.898;10.854;2023-09-30T10:04:20;8.45;;;2.30;;
65896;SDS011;52677;50.898;10.854;2023-09-30T10:06:20;6.05;;;2.42;;
65896;SDS011;52677;50.898;10.854;2023-09-30T10:08:27;6.93;;;1.80;;
65896;SDS011;52677;50.898;10.854;2023-09-30T10:10:31;8.15;;;2.30;;
65896;SDS011;52677;50.898;10.854;2023-09-30T10:12:39;7.88;;;2.63;;
65896;SDS011;52677;50.898;10.854;2023-09-30T10:14:40;7.38;;;2.25;;
65896;SDS011;52677;50.898;10.854;2023-09-30T10:21:12;8.27;;;1.80;;
65896;SDS011;52677;50.898;10.854;2023-09-30T10:25:33;5.70;;;2.25;;
65896;SDS011;52677;50.898;10.854;2023-09-30T10:27:35;7.22;;;2.60;;
65896;SDS011;52677;50.898;10.854;2023-09-30T10:29:40;11.40;;;2.33;;
65896;SDS011;52677;50.898;10.854;2023-09-30T10:36:00;4.30;;;2.20;;
65896;SDS011;52677;50.898;10.854;2023-09-30T10:40:29;5.88;;;2.33;;
65896;SDS011;52677;50.898;10.854;2023-09-30T10:42:44;4.70;;;2.10;;
65896;SDS011;52677;50.898;10.854;2023-09-30T10:44:49;8.70;;;2.40;;
65896;SDS011;52677;50.898;10.854;2023-09-30T10:46:57;7.70;;;2.70;;
65896;SDS011;52677;50.898;10.854;2023-09-30T10:49:14;6.85;;;2.33;;
65896;SDS011;52677;50.898;10.854;2023-09-30T10:51:31;8.32;;;2.05;;
65896;SDS011;52677;50.898;10.854;2023-09-30T10:53:45;5.70;;;1.83;;
65896;SDS011;52677;50.898;10.854;2023-09-30T10:55:47;4.57;;;1.65;;
65896;SDS011;52677;50.898;10.854;2023-09-30T10:57:53;3.88;;;1.73;;
65896;SDS011;52677;50.898;10.854;2023-09-30T11:00:12;6.90;;;2.13;;
65896;SDS011;52677;50.898;10.854;2023-09-30T11:02:18;8.57;;;1.65;;
65896;SDS011;52677;50.898;10.854;2023-09-30T11:04:20;4.95;;;1.95;;
65896;SDS011;52677;50.898;10.854;2023-09-30T11:06:20;6.22;;;1.80;;
65896;SDS011;52677;50.898;10.854;2023-09-30T11:08:21;6.30;;;1.80;;
65896;SDS011;52677;50.898;10.854;2023-09-30T11:10:25;6.88;;;2.15;;
65896;SDS011;52677;50.898;10.854;2023-09-30T11:12:25;3.58;;;1.55;;
65896;SDS011;52677;50.898;10.854;2023-09-30T11:14:26;6.45;;;2.10;;
65896;SDS011;52677;50.898;10.854;2023-09-30T11:16:28;6.95;;;1.88;;
65896;SDS011;52677;50.898;10.854;2023-09-30T11:18:29;5.28;;;2.00;;
65896;SDS011;52677;50.898;10.854;2023-09-30T11:20:29;5.25;;;2.40;;
65896;SDS011;52677;50.898;10.854;2023-09-30T11:22:29;5.43;;;1.60;;
65896;SDS011;52677;50.898;10.854;2023-09-30T11:24:30;7.55;;;2.15;;
65896;SDS011;52677;50.898;10.854;2023-09-30T11:26:33;6.30;;;2.08;;
65896;SDS011;52677;50.898;10.854;2023-09-30T11:28:37;5.40;;;2.08;;
65896;SDS011;52677;50.898;10.854;2023-09-30T11:31:02;7.88;;;1.90;;
65896;SDS011;52677;50.898;10.854;2023-09-30T11:33:02;4.80;;;1.77;;
65896;SDS011;52677;50.898;10.854;2023-09-30T11:35:02;5.30;;;2.22;;
65896;SDS011;52677;50.898;10.854;2023-09-30T11:37:03;5.30;;;1.75;;
65896;SDS011;52677;50.898;10.854;2023-09-30T11:39:05;3.90;;;1.88;;
65896;SDS011;52677;50.898;10.854;2023-09-30T11:41:06;5.35;;;1.80;;
65896;SDS011;52677;50.898;10.854;2023-09-30T11:43:06;3.58;;;1.40;;
65896;SDS011;52677;50.898;10.854;2023-09-30T11:45:22;4.57;;;1.45;;
65896;SDS011;52677;50.898;10.854;2023-09-30T11:47:29;8.23;;;1.70;;
65896;SDS011;52677;50.898;10.854;2023-09-30T11:49:38;5.28;;;1.63;;
65896;SDS011;52677;50.898;10.854;2023-09-30T11:51:43;6.40;;;1.70;;
65896;SDS011;52677;50.898;10.854;2023-09-30T11:53:47;7.93;;;1.80;;
65896;SDS011;52677;50.898;10.854;2023-09-30T11:55:49;4.77;;;1.60;;
65896;SDS011;52677;50.898;10.854;2023-09-30T11:57:49;3.33;;;1.30;;
65896;SDS011;52677;50.898;10.854;2023-09-30T12:01:52;4.25;;;1.75;;
65896;SDS011;52677;50.898;10.854;2023-09-30T12:03:53;4.07;;;1.88;;
65896;SDS011;52677;50.898;10.854;2023-09-30T12:07:56;6.22;;;1.33;;
65896;SDS011;52677;50.898;10.854;2023-09-30T12:09:56;6.32;;;1.70;;
65896;SDS011;52677;50.898;10.854;2023-09-30T12:11:56;3.67;;;1.58;;
65896;SDS011;52677;50.898;10.854;2023-09-30T12:13:59;5.18;;;1.70;;
65896;SDS011;52677;50.898;10.854;2023-09-30T12:16:00;7.25;;;1.88;;
65896;SDS011;52677;50.898;10.854;2023-09-30T12:18:01;5.82;;;1.50;;
65896;SDS011;52677;50.898;10.854;2023-09-30T12:20:01;7.07;;;1.70;;
65896;SDS011;52677;50.898;10.854;2023-09-30T12:22:03;4.80;;;1.50;;
65896;SDS011;52677;50.898;10.854;2023-09-30T12:24:03;3.65;;;1.40;;
65896;SDS011;52677;50.898;10.854;2023-09-30T12:26:04;5.15;;;1.65;;